LH2030 / D-ACNE 7700 Squawk Report (23rd of June, 2019)

Aircraft CRJ9 Reg No. D-ACNE Age 10 years old
Model Regional-Jet Jet engines 2 First flight 01-07-09
Registered 21-08-09 Rollout 06-09 Delivered 21-08-09
Construction No. 15241 Line No. N/A Series 900
ADSHEX 3C4DC5 Airline name Lufthansa Regional Owner Lufthansa Cityline
Airfield based Munich~Bayern~D First tracked 2017-07-13 11:25:00

Flight history for D-ACNE

Route Flight No Date Playback
Munster Osnabruck (FMO) - Frankfurt Main (FRA) LH63 2019-07-24 04:49:00
Frankfurt Main (FRA) - Brussels Airport (BRU) LH1024 2019-07-23 20:01:00
Olbia Costa Smeralda (OLB) - Frankfurt Main (FRA) LH321 2019-07-23 18:25:00
Frankfurt Main (FRA) - Olbia Costa Smeralda (OLB) LH320 2019-07-23 15:09:00
Hannover (HAJ) - Frankfurt Main (FRA) LH57 2019-07-23 14:22:00
Frankfurt Main (FRA) - EuroAirport Basel Mulhouse Freiburg (BSL) LH1204 2019-07-23 11:42:00
EuroAirport Basel Mulhouse Freiburg (BSL) - Frankfurt Main (FRA) LH1203 2019-07-23 10:00:00
Frankfurt Main (FRA) - EuroAirport Basel Mulhouse Freiburg (BSL) LH1202 2019-07-23 08:20:00
Koln Bonn (CGN) - Munich Airport (MUC) LH1985 2019-07-23 06:40:00
Frankfurt Main (FRA) - Luxembourg (LUX) LH390 2019-07-23 05:19:00
Katowice Airport (KTW) - Frankfurt Main (FRA) LH1361 2019-07-22 18:08:00
Frankfurt Main (FRA) - Katowice Airport (KTW) LH1360 2019-07-22 16:01:00
Munster Osnabruck (FMO) - Frankfurt Main (FRA) LH67 2019-07-22 15:24:00
Frankfurt Main (FRA) - Munster Osnabruck (FMO) LH64 2019-07-22 11:33:00
Luxembourg (LUX) - Frankfurt Main (FRA) LH393 2019-07-22 09:32:00
Frankfurt Main (FRA) - Henri Coanda (OTP) LH1422 2019-07-22 08:01:00
Munster Osnabruck (FMO) - Frankfurt Main (FRA) LH63 2019-07-22 04:48:00
Frankfurt Main (FRA) - Brussels Airport (BRU) LH1024 2019-07-21 20:10:00
Wroclaw Airport (WRO) - Frankfurt Main (FRA) LH1355 2019-07-21 18:16:00
Frankfurt Main (FRA) - Wroclaw Airport (WRO) LH1354 2019-07-21 17:32:00
Time Lat Lon Altitude Heading Speed Vertical Rate
2019-06-23 05:59:49 GMT 52.457993 12.513192 7,000 289 249 0
2019-06-23 05:59:40 GMT 52.453293 12.500480 7,000 289 249 0
2019-06-23 05:59:27 GMT 52.441517 12.493809 7,025 289 249 0
2019-06-23 05:59:20 GMT 52.435509 12.489807 7,000 289 249 0
2019-06-23 05:59:06 GMT 52.417400 12.486904 7,000 289 249 0
2019-06-23 05:58:59 GMT 52.407906 12.481881 7,025 289 249 0
2019-06-23 05:58:45 GMT 52.394077 12.481018 7,000 289 249 0
2019-06-23 05:58:41 GMT 52.388912 12.478664 7,000 289 249 0
2019-06-23 05:58:27 GMT 52.373318 12.470581 7,000 289 249 0
2019-06-23 05:58:20 GMT 52.365311 12.470503 7,000 289 249 0
2019-06-23 05:58:05 GMT 52.349388 12.477330 7,025 289 249 0
2019-06-23 05:58:00 GMT 52.343521 12.480783 7,025 289 249 0
2019-06-23 05:57:48 GMT 52.334911 12.487610 7,025 289 249 0
2019-06-23 05:57:35 GMT 52.328903 12.512721 7,000 289 249 0
2019-06-23 05:57:27 GMT 52.326111 12.526925 7,000 289 249 0
2019-06-23 05:57:20 GMT 52.323692 12.539403 7,000 289 249 0
2019-06-23 05:57:08 GMT 52.320202 12.559021 7,000 289 249 0
2019-06-23 05:56:52 GMT 52.314522 12.587429 7,000 289 249 0
2019-06-23 05:56:47 GMT 52.309818 12.612383 7,025 289 249 0
2019-06-23 05:56:37 GMT 52.309818 12.612383 7,025 289 249 0
2019-06-23 05:56:25 GMT 52.305119 12.637730 7,000 289 249 0
2019-06-23 05:56:12 GMT 52.301022 12.658369 7,000 289 249 0
2019-06-23 05:56:06 GMT 52.298786 12.669120 7,000 288 254 0
2019-06-23 05:55:52 GMT 52.293015 12.697527 7,000 288 254 0
2019-06-23 05:55:44 GMT 52.290688 12.708435 7,000 288 253 0
2019-06-23 05:55:36 GMT 52.287521 12.725621 7,000 288 265 0
2019-06-23 05:55:23 GMT 52.283283 12.748300 7,000 288 266 0
2019-06-23 05:55:17 GMT 52.283005 12.758423 7,000 290 277 0
2019-06-23 05:55:06 GMT 52.280678 12.782593 7,000 296 273 0
2019-06-23 05:54:57 GMT 52.275604 12.801191 7,000 296 275 0
2019-06-23 05:54:42 GMT 52.269085 12.824027 7,000 298 287 -128
2019-06-23 05:54:34 GMT 52.256516 12.864833 7,000 298 287 -128
2019-06-23 05:54:20 GMT 52.256516 12.864833 7,000 298 287 -128
2019-06-23 05:54:16 GMT 52.252003 12.876918 7,000 298 287 -128
2019-06-23 05:54:02 GMT 52.243809 12.901716 7,000 298 290 -320
2019-06-23 05:53:50 GMT 52.237801 12.925337 7,000 301 287 -832
2019-06-23 05:53:41 GMT 52.231518 12.945112 7,025 303 284 -1088
2019-06-23 05:53:36 GMT 52.227512 12.956177 7,025 303 284 -1152
2019-06-23 05:53:14 GMT 52.212990 12.995963 7,250 309 275 -960
2019-06-23 05:53:02 GMT 52.204517 13.021075 7,475 327 284 -832
2019-06-23 05:52:53 GMT 52.200794 13.033630 7,675 352 285 -1088
2019-06-23 05:52:41 GMT 52.188179 13.055289 7,850 352 285 -1088
2019-06-23 05:52:30 GMT 52.174911 13.063215 8,025 352 285 -1088
2019-06-23 05:52:19 GMT 52.153404 13.068630 8,425 353 292 -1152
2019-06-23 05:52:14 GMT 52.153404 13.068630 8,400 353 292 -1152
2019-06-23 05:51:58 GMT 52.135296 13.072632 8,575 353 317 -1216
2019-06-23 05:51:53 GMT 52.123703 13.075614 8,725 353 317 -1216
2019-06-23 05:51:37 GMT 52.105919 13.079694 8,975 353 317 -1216
2019-06-23 05:51:28 GMT 52.091488 13.082598 9,200 353 332 -2112
2019-06-23 05:51:21 GMT 52.084179 13.083775 9,425 353 332 -2112
2019-06-23 05:51:07 GMT 52.060810 13.088876 9,625 353 332 -2112
2019-06-23 05:51:02 GMT 52.054710 13.090288 9,800 353 332 -2112
2019-06-23 05:50:52 GMT 52.036697 13.094212 10,025 353 332 -2112
2019-06-23 05:50:41 GMT 52.024918 13.097037 10,400 353 334 -2112
2019-06-23 05:50:26 GMT 52.002296 13.101903 10,750 353 338 -2112
2019-06-23 05:50:21 GMT 51.992985 13.103472 11,150 9 423 -1536
2019-06-23 05:50:09 GMT 51.974594 13.107788 11,550 9 423 -1536
2019-06-23 05:49:56 GMT 51.954113 13.113124 11,775 9 423 -1536
2019-06-23 05:49:50 GMT 51.946480 13.114615 12,200 9 423 -1536
2019-06-23 05:49:36 GMT 51.923203 13.119716 12,575 9 423 -1536
2019-06-23 05:49:26 GMT 51.906582 13.122698 12,900 9 423 -1536
2019-06-23 05:49:18 GMT 51.893501 13.124817 13,250 9 423 -1536
2019-06-23 05:49:04 GMT 51.869713 13.130112 13,600 9 423 -1536
2019-06-23 05:48:55 GMT 51.859890 13.131866 13,900 9 423 -1536
2019-06-23 05:48:48 GMT 51.844994 13.134995 14,175 9 423 -1536
2019-06-23 05:48:39 GMT 51.833820 13.137283 14,475 9 423 -1536
2019-06-23 05:48:24 GMT 51.806915 13.143005 14,700 9 423 -1536
2019-06-23 05:48:20 GMT 51.793785 13.145676 14,975 9 423 -1536
2019-06-23 05:48:08 GMT 51.780613 13.149414 15,325 9 423 -1536
2019-06-23 05:47:56 GMT 51.757896 13.152466 15,525 9 423 -1536
2019-06-23 05:47:42 GMT 51.735691 13.156433 17,000 9 423 -1536
2019-06-23 05:44:54 GMT 51.451210 13.216934 20,450 9 423 -1536
2019-06-23 05:44:43 GMT 51.412384 13.226624 20,900 9 423 -1536
2019-06-23 05:44:31 GMT 51.412384 13.226624 21,000 9 423 -1536
2019-06-23 05:44:18 GMT 51.385990 13.233490 21,325 9 423 -1536
2019-06-23 05:44:08 GMT 51.368999 13.238220 21,575 9 423 -1536
2019-06-23 05:43:54 GMT 51.346420 13.243713 21,900 9 423 -1536
2019-06-23 05:43:48 GMT 51.333992 13.246765 22,200 9 423 -1536
2019-06-23 05:43:35 GMT 51.314579 13.251572 22,475 9 423 -1536
2019-06-23 05:43:26 GMT 51.298519 13.255386 22,725 9 423 -1536
2019-06-23 05:43:13 GMT 51.272308 13.262482 23,050 9 423 -1536
2019-06-23 05:43:00 GMT 51.250896 13.267593 23,325 9 423 -1536
2019-06-23 05:42:52 GMT 51.236511 13.270569 23,625 9 423 -1536
2019-06-23 05:42:37 GMT 51.209091 13.276978 23,950 9 423 -1536
2019-06-23 05:42:31 GMT 51.200012 13.278732 24,200 9 423 -1536
2019-06-23 05:42:19 GMT 51.177807 13.285675 24,600 9 423 -1536
2019-06-23 05:42:10 GMT 51.159420 13.304214 24,800 9 423 -1536
2019-06-23 05:41:56 GMT 51.135490 13.305511 25,125 9 423 -1536
2019-06-23 05:41:49 GMT 51.121899 13.303986 25,350 9 423 -1536
2019-06-23 05:41:37 GMT 51.098995 13.299637 29,975 9 423 -1536
2019-06-23 05:41:24 GMT 51.071388 13.292236 25,975 9 423 -1536
2019-06-23 05:41:13 GMT 51.052490 13.287277 26,900 9 423 -1536
2019-06-23 05:41:03 GMT 51.035915 13.283234 29,975 9 423 -1536
2019-06-23 05:40:56 GMT 51.022697 13.279572 26,975 9 423 -1536
2019-06-23 05:40:45 GMT 50.999886 13.273392 27,075 9 431 -1600
2019-06-23 05:40:31 GMT 50.959991 13.263321 27,425 10 452 -1728
2019-06-23 05:40:23 GMT 50.959991 13.263321 27,650 10 452 -1728
2019-06-23 05:40:08 GMT 50.929405 13.255692 27,925 10 452 -1728
2019-06-23 05:40:03 GMT 50.917114 13.252106 28,150 10 452 -1728
2019-06-23 05:39:54 GMT 50.901611 13.247681 28,400 10 452 -1728
2019-06-23 05:39:40 GMT 50.870609 13.237686 28,750 9 450 -1344
2019-06-23 05:39:28 GMT 50.850311 13.232422 29,075 9 453 64
2019-06-23 05:39:16 GMT 50.825920 13.225937 29,350 9 453 64
2019-06-23 05:39:00 GMT 50.788677 13.215790 29,950 9 453 64
2019-06-23 05:38:44 GMT 50.755718 13.206635 30,000 9 453 64
2019-06-23 05:38:38 GMT 50.743011 13.202896 30,000 10 448 128
2019-06-23 05:38:23 GMT 50.711681 13.193283 30,000 10 448 128
2019-06-23 05:38:15 GMT 50.695202 13.188934 30,000 10 448 128
2019-06-23 05:37:56 GMT 50.658100 13.180921 30,000 10 448 128
2019-06-23 05:37:52 GMT 50.649998 13.179214 30,000 10 448 128
2019-06-23 05:37:35 GMT 50.618298 13.170974 30,000 10 448 128
2019-06-23 05:37:27 GMT 50.602283 13.167634 30,025 10 448 128
2019-06-23 05:37:18 GMT 50.581612 13.161473 30,100 10 448 128
2019-06-23 05:37:06 GMT 50.556801 13.155683 30,000 13 439 0
2019-06-23 05:36:55 GMT 50.532688 13.148111 30,000 13 439 0
2019-06-23 05:36:46 GMT 50.517418 13.143731 30,000 13 439 0
2019-06-23 05:36:33 GMT 50.485298 13.133264 30,000 13 439 0
2019-06-23 05:36:22 GMT 50.467190 13.126806 29,975 13 439 0
2019-06-23 05:36:11 GMT 50.443493 13.118715 30,025 13 439 0
2019-06-23 05:36:06 GMT 50.434692 13.115300 29,950 13 439 0
2019-06-23 05:35:53 GMT 50.408298 13.105131 29,975 14 433 -128
2019-06-23 05:35:41 GMT 50.387119 13.096668 29,975 14 426 -128
2019-06-23 05:35:29 GMT 50.363701 13.087686 29,925 14 426 -128
2019-06-23 05:35:18 GMT 50.340519 13.078407 30,000 14 426 -128
2019-06-23 05:35:11 GMT 50.326878 13.072988 30,075 14 426 -128
2019-06-23 05:34:57 GMT 50.301323 13.062596 30,050 14 426 -128
2019-06-23 05:34:51 GMT 50.285820 13.056434 30,025 14 426 -128
2019-06-23 05:34:46 GMT 50.279816 13.053911 30,000 14 426 -128
2019-06-23 05:34:39 GMT 50.262497 13.046265 29,950 14 426 -128
2019-06-23 05:34:24 GMT 50.232517 13.036392 29,950 14 426 -128
2019-06-23 05:34:16 GMT 50.220695 13.032680 29,975 14 426 -128
2019-06-23 05:34:05 GMT 50.195183 13.023030 30,000 14 426 -128
2019-06-23 05:33:54 GMT 50.162086 13.010336 30,000 14 426 -128
2019-06-23 05:33:46 GMT 50.142906 13.002765 30,025 14 426 -128
2019-06-23 05:33:39 GMT 50.142906 13.002765 30,025 14 426 -128
2019-06-23 05:33:34 GMT 50.135319 13.000092 30,000 14 426 -128
2019-06-23 05:33:27 GMT 50.119907 12.994896 29,950 14 426 -128
2019-06-23 05:33:17 GMT 50.106503 12.989626 29,950 14 426 -128
2019-06-23 05:33:08 GMT 50.089184 12.982499 29,975 14 426 -128
2019-06-23 05:33:02 GMT 50.074009 12.976709 30,025 14 426 -128
2019-06-23 05:32:57 GMT 50.068188 12.974482 30,100 14 426 -128
2019-06-23 05:32:48 GMT 50.047195 12.966688 30,050 14 426 -128
2019-06-23 05:32:41 GMT 50.037510 12.962976 29,975 14 426 -128
2019-06-23 05:32:36 GMT 50.028015 12.959191 29,975 14 426 -128
2019-06-23 05:32:25 GMT 50.005482 12.950505 30,000 14 426 -128
2019-06-23 05:32:18 GMT 49.976387 12.939296 29,975 24 422 384
2019-06-23 05:32:10 GMT 49.976387 12.939296 29,950 24 422 384
2019-06-23 05:32:04 GMT 49.964981 12.934694 29,950 24 422 384
2019-06-23 05:31:58 GMT 49.950878 12.929201 30,025 24 422 384
2019-06-23 05:31:51 GMT 49.937378 12.923782 30,050 24 422 384
2019-06-23 05:31:45 GMT 49.927788 12.919476 30,000 24 422 384
2019-06-23 05:31:39 GMT 49.912891 12.913686 30,000 24 422 384
2019-06-23 05:31:33 GMT 49.903580 12.909232 30,000 24 422 384
2019-06-23 05:31:22 GMT 49.884914 12.900696 30,025 24 422 384
2019-06-23 05:31:13 GMT 49.866711 12.892827 30,000 24 422 384
2019-06-23 05:31:00 GMT 49.841618 12.881767 29,975 24 422 384
2019-06-23 05:30:51 GMT 49.827003 12.876125 30,000 24 422 384
2019-06-23 05:30:40 GMT 49.808800 12.869890 30,025 24 422 384
2019-06-23 05:30:30 GMT 49.789478 12.864471 33,075 24 422 384
2019-06-23 05:30:17 GMT 49.763504 12.861576 30,000 24 422 384
2019-06-23 05:30:07 GMT 49.746700 12.856305 30,000 24 422 384
2019-06-23 05:30:02 GMT 49.730080 12.854820 29,975 24 422 384
2019-06-23 05:29:55 GMT 49.710995 12.851925 29,975 24 422 384
2019-06-23 05:29:50 GMT 49.710995 12.851925 30,025 24 422 384
2019-06-23 05:29:45 GMT 49.701218 12.847026 30,025 24 422 384
2019-06-23 05:29:39 GMT 49.690186 12.840791 30,075 24 422 384
2019-06-23 05:29:31 GMT 49.677521 12.833664 30,075 24 422 384
2019-06-23 05:29:27 GMT 49.668400 12.827577 30,000 24 422 384
2019-06-23 05:29:08 GMT 49.632088 12.801373 30,000 24 422 384
2019-06-23 05:29:01 GMT 49.623615 12.793579 30,000 24 422 384
2019-06-23 05:28:55 GMT 49.584698 12.764926 30,000 24 422 384
2019-06-23 05:28:38 GMT 49.584698 12.764926 30,000 24 422 384
2019-06-23 05:28:28 GMT 49.565376 12.750673 30,000 24 422 384
2019-06-23 05:28:21 GMT 49.554810 12.742285 30,000 24 422 384
2019-06-23 05:28:08 GMT 49.530602 12.724766 30,000 24 422 384
2019-06-23 05:27:55 GMT 49.506397 12.707396 30,000 24 422 384
2019-06-23 05:27:48 GMT 49.497597 12.701309 30,000 23 393 1600
2019-06-23 05:27:37 GMT 49.478279 12.688318 30,000 23 393 1600
2019-06-23 05:27:22 GMT 49.451885 12.667311 30,000 23 393 1600
2019-06-23 05:27:15 GMT 49.437592 12.657735 29,825 23 393 1600
2019-06-23 05:27:02 GMT 49.413616 12.641216 29,675 23 393 1600
2019-06-23 05:26:56 GMT 49.377819 12.617292 29,475 23 393 1600
2019-06-23 05:26:41 GMT 49.377819 12.617292 29,300 23 393 1600
2019-06-23 05:26:33 GMT 49.363712 12.607679 28,725 23 393 1600
2019-06-23 05:26:21 GMT 49.340717 12.591127 29,000 23 393 1600
2019-06-23 05:26:11 GMT 49.323120 12.579201 28,800 23 393 1600
2019-06-23 05:25:59 GMT 49.300915 12.563878 28,650 23 393 1600
2019-06-23 05:25:54 GMT 49.293884 12.559397 28,475 23 393 1600
2019-06-23 05:25:40 GMT 49.268284 12.542122 28,275 23 393 1600
2019-06-23 05:25:28 GMT 49.248077 12.528173 28,125 23 393 1600
2019-06-23 05:25:20 GMT 49.234299 12.518921 27,975 23 393 1600
2019-06-23 05:25:06 GMT 49.212883 12.504465 27,800 24 391 2112
2019-06-23 05:25:02 GMT 49.204597 12.498827 27,500 24 391 2112
2019-06-23 05:24:49 GMT 49.183884 12.484878 27,250 24 391 2112
2019-06-23 05:24:38 GMT 49.162514 12.470422 26,900 24 391 2112
2019-06-23 05:24:26 GMT 49.144314 12.457773 26,575 24 391 2112
2019-06-23 05:24:21 GMT 49.132908 12.450184 26,350 24 391 2112
2019-06-23 05:24:08 GMT 49.112888 12.436885 26,025 23 365 2048
2019-06-23 05:23:54 GMT 49.093105 12.422791 25,625 23 365 2048
2019-06-23 05:23:49 GMT 49.084679 12.417008 25,275 23 365 2048
2019-06-23 05:23:35 GMT 49.060192 12.400384 24,950 23 365 2048
2019-06-23 05:23:28 GMT 49.050419 12.393735 24,600 23 365 2048
2019-06-23 05:23:15 GMT 49.025417 12.377111 24,125 23 365 2048
2019-06-23 05:23:01 GMT 49.004097 12.362583 23,475 23 365 2048
2019-06-23 05:22:52 GMT 48.987804 12.352030 23,500 23 365 2048
2019-06-23 05:22:45 GMT 48.976212 12.344007 23,050 23 365 2048
2019-06-23 05:21:50 GMT 48.888695 12.285172 21,150 23 365 2048
2019-06-23 05:21:40 GMT 48.871796 12.273608 20,850 23 365 2048
2019-06-23 05:21:29 GMT 48.856014 12.263127 20,525 23 290 2816
2019-06-23 05:21:22 GMT 48.844891 12.255972 20,050 23 290 2816
2019-06-23 05:21:10 GMT 48.823521 12.242528 19,725 23 290 2816
2019-06-23 05:20:56 GMT 48.803783 12.229518 19,450 23 290 2816
2019-06-23 05:20:51 GMT 48.796509 12.224473 19,075 23 290 2816
2019-06-23 05:20:36 GMT 48.772408 12.208702 18,750 23 290 2816
2019-06-23 05:20:31 GMT 48.764912 12.203570 18,425 23 290 2816
2019-06-23 05:20:18 GMT 48.746990 12.191499 18,175 23 290 2816
2019-06-23 05:20:06 GMT 48.729813 12.180585 17,825 23 290 2816
2019-06-23 05:19:58 GMT 48.718498 12.173430 17,600 23 290 2816
2019-06-23 05:19:45 GMT 48.701088 12.161576 17,325 23 290 2816
2019-06-23 05:19:38 GMT 48.691593 12.155288 16,975 23 290 2816
2019-06-23 05:19:26 GMT 48.674786 12.142567 16,675 23 290 2816
2019-06-23 05:19:18 GMT 48.663986 12.134689 16,375 23 290 2816
2019-06-23 05:19:07 GMT 48.636616 12.116330 15,925 23 290 2816
2019-06-23 05:18:57 GMT 48.636616 12.116330 15,650 23 290 2816
2019-06-23 05:18:42 GMT 48.615108 12.102886 15,250 23 290 2816
2019-06-23 05:18:36 GMT 48.608589 12.098622 14,675 23 290 2816
2019-06-23 05:18:26 GMT 48.595882 12.090526 14,300 23 290 2816
2019-06-23 05:18:15 GMT 48.583405 12.082503 13,800 23 290 2816
2019-06-23 05:18:03 GMT 48.568089 12.073035 13,325 23 290 2816

Making use of Plane Finder data

You are free to use the raw flight data, aircraft information and images provided in this report for your own purposes provided the data is correctly attributed to Plane Finder. We ask that you please credit Plane Finder and link to planefinder.net in close proximity to the content.

Optionally one of the following logos (no smaller then 150x24px) can be used and must link to planefinder.net

Embedding the Plane Finder map

You are welcome to embed the Plane Finder playback map on your website to offer visitors a more interactive experience. We suggest using the following HTML code:

<iframe src="//planefinder.net/data/report/LH2030-D-ACNE-7700-squawk-2019-06-23/map" width="800" height="600" seamless="seamless"></iframe>

Where our data comes from

Plane Finder has a global network of data feeds and antenna radars that receive data broadcast directly from aircraft. The primary technologies used are ADS-B and MLAT. We also show feeds from the FAA and a FLARM glider feed.

Click here to find out more about the Plane Finder network.

How we collect our data